createdAt,value
2022-07-25T00:01:56.976Z,14.63
2022-07-25T00:04:24.995Z,11.40
2022-07-25T00:06:52.176Z,9.65
2022-07-25T00:09:19.375Z,11.73
2022-07-25T00:11:46.536Z,10.15
2022-07-25T00:14:13.806Z,10.80
2022-07-25T00:16:41.053Z,11.80
2022-07-25T00:19:08.282Z,10.10
2022-07-25T00:21:35.573Z,13.13
2022-07-25T00:24:03.049Z,10.07
2022-07-25T00:26:30.483Z,9.20
2022-07-25T00:28:57.668Z,9.65
2022-07-25T00:31:24.851Z,10.10
2022-07-25T00:33:52.042Z,9.75
2022-07-25T00:36:19.186Z,9.93
2022-07-25T00:38:46.346Z,9.75
2022-07-25T00:41:13.477Z,9.68
2022-07-25T00:43:44.109Z,11.63
2022-07-25T00:46:15.095Z,12.55
2022-07-25T00:48:46.483Z,11.27
2022-07-25T00:51:13.848Z,10.45
2022-07-25T00:53:41.011Z,9.30
2022-07-25T00:56:08.765Z,9.82
2022-07-25T00:58:36.198Z,10.85
2022-07-25T01:01:04.297Z,10.13
2022-07-25T01:03:31.538Z,9.82
2022-07-25T01:05:59.546Z,11.52
2022-07-25T01:08:26.721Z,11.20
2022-07-25T01:10:53.941Z,9.75
2022-07-25T01:13:21.428Z,9.75
2022-07-25T01:15:48.659Z,9.18
2022-07-25T01:18:15.891Z,10.23
2022-07-25T01:20:43.072Z,10.35
2022-07-25T01:23:10.219Z,10.07
2022-07-25T01:25:37.406Z,9.40
2022-07-25T01:28:04.618Z,10.70
2022-07-25T01:30:31.801Z,10.40
2022-07-25T01:32:59.009Z,9.60
2022-07-25T01:35:26.183Z,10.93
2022-07-25T01:37:53.323Z,10.15
2022-07-25T01:40:20.480Z,10.20
2022-07-25T01:42:47.612Z,10.50
2022-07-25T01:45:14.776Z,10.63
2022-07-25T01:47:42.042Z,9.93
2022-07-25T01:50:09.664Z,10.93
2022-07-25T01:52:37.735Z,10.32
2022-07-25T01:55:05.164Z,10.63
2022-07-25T01:57:33.512Z,9.73
2022-07-25T02:00:04.658Z,10.25
2022-07-25T02:02:31.794Z,10.70
2022-07-25T02:04:59.227Z,11.23
2022-07-25T02:07:26.483Z,9.88
2022-07-25T02:09:56.820Z,12.05
2022-07-25T02:12:24.207Z,13.05
2022-07-25T02:14:51.349Z,10.68
2022-07-25T02:17:18.688Z,10.82
2022-07-25T02:19:45.928Z,11.25
2022-07-25T02:22:13.430Z,10.52
2022-07-25T02:24:40.594Z,12.25
2022-07-25T02:27:08.705Z,11.43
2022-07-25T02:29:35.862Z,14.73
2022-07-25T02:32:03.321Z,11.30
2022-07-25T02:34:30.505Z,11.63
2022-07-25T02:36:57.660Z,12.65
2022-07-25T02:39:25.389Z,11.13
2022-07-25T02:41:52.550Z,12.95
2022-07-25T02:44:19.688Z,10.40
2022-07-25T02:46:46.861Z,13.02
2022-07-25T02:49:14.289Z,11.50
2022-07-25T02:51:41.544Z,12.65
2022-07-25T02:54:08.690Z,10.60
2022-07-25T02:56:36.033Z,10.52
2022-07-25T02:59:03.160Z,10.93
2022-07-25T03:01:30.652Z,15.40
2022-07-25T03:03:57.981Z,9.85
2022-07-25T03:06:25.360Z,12.35
2022-07-25T03:08:52.515Z,10.73
2022-07-25T03:11:20.535Z,11.27
2022-07-25T03:13:47.692Z,16.17
2022-07-25T03:16:15.151Z,13.25
2022-07-25T03:18:42.332Z,11.43
2022-07-25T03:21:09.519Z,12.82
2022-07-25T03:23:36.644Z,12.13
2022-07-25T03:26:03.781Z,11.48
2022-07-25T03:28:30.922Z,10.90
2022-07-25T03:30:58.130Z,11.02
2022-07-25T03:33:25.282Z,12.30
2022-07-25T03:35:52.503Z,11.65
2022-07-25T03:38:19.763Z,11.77
2022-07-25T03:40:46.969Z,12.45
2022-07-25T03:43:14.148Z,11.15
2022-07-25T03:45:41.365Z,11.93
2022-07-25T03:48:08.670Z,13.50
2022-07-25T03:50:35.862Z,10.60
2022-07-25T03:53:03.000Z,11.30
2022-07-25T03:55:30.564Z,11.52
2022-07-25T03:57:57.717Z,12.05
2022-07-25T04:00:24.859Z,14.20
2022-07-25T04:02:52.124Z,13.30
2022-07-25T04:05:19.303Z,13.43
2022-07-25T04:07:46.451Z,13.82
2022-07-25T04:10:13.730Z,13.13
2022-07-25T04:12:41.115Z,12.60
2022-07-25T04:15:08.655Z,14.25
2022-07-25T04:17:35.814Z,17.05
2022-07-25T04:20:07.481Z,14.18
2022-07-25T04:22:35.386Z,15.95
2022-07-25T04:25:02.696Z,15.70
2022-07-25T04:27:29.881Z,12.23
2022-07-25T04:29:57.109Z,14.38
2022-07-25T04:32:24.345Z,16.05
2022-07-25T04:34:52.386Z,16.77
2022-07-25T04:37:19.615Z,14.20
2022-07-25T04:39:46.779Z,13.70
2022-07-25T04:42:13.976Z,14.75
2022-07-25T04:44:41.129Z,14.95
2022-07-25T04:47:08.336Z,12.27
2022-07-25T04:49:35.458Z,15.13
2022-07-25T04:52:02.631Z,16.00
2022-07-25T04:54:29.906Z,17.52
2022-07-25T04:56:57.113Z,16.80
2022-07-25T04:59:24.289Z,16.73
2022-07-25T05:01:51.637Z,13.73
2022-07-25T05:04:18.790Z,12.38
2022-07-25T05:06:45.953Z,14.43
2022-07-25T05:09:13.103Z,12.85
2022-07-25T05:11:45.148Z,13.77
2022-07-25T05:14:14.537Z,14.05
2022-07-25T05:16:41.739Z,12.10
2022-07-25T05:19:09.719Z,15.43
2022-07-25T05:21:38.206Z,13.15
2022-07-25T05:24:06.055Z,12.95
2022-07-25T05:26:33.377Z,10.80
2022-07-25T05:29:00.472Z,10.68
2022-07-25T05:31:27.642Z,12.48
2022-07-25T05:33:54.831Z,12.10
2022-07-25T05:36:21.951Z,12.75
2022-07-25T05:38:49.112Z,10.23
2022-07-25T05:41:16.423Z,14.45
2022-07-25T05:43:46.149Z,10.40
2022-07-25T05:46:13.436Z,9.80
2022-07-25T05:48:40.725Z,13.45
2022-07-25T05:51:07.881Z,10.00
2022-07-25T05:53:35.194Z,10.38
2022-07-25T05:56:02.328Z,9.45
2022-07-25T05:58:30.219Z,10.88
2022-07-25T06:00:58.242Z,9.75
2022-07-25T06:03:25.559Z,8.77
2022-07-25T06:05:52.713Z,8.75
2022-07-25T06:08:19.921Z,9.15
2022-07-25T06:10:49.679Z,9.27
2022-07-25T06:13:16.838Z,8.95
2022-07-25T06:15:47.877Z,10.18
2022-07-25T06:18:15.346Z,10.90
2022-07-25T06:20:42.625Z,9.48
2022-07-25T06:23:09.816Z,9.00
2022-07-25T06:25:36.964Z,8.68
2022-07-25T06:28:04.594Z,9.52
2022-07-25T06:30:31.800Z,8.82
2022-07-25T06:32:59.079Z,9.23
2022-07-25T06:35:26.263Z,9.05
2022-07-25T06:37:53.555Z,9.85
2022-07-25T06:40:20.707Z,9.95
2022-07-25T06:42:48.283Z,8.63
2022-07-25T06:45:16.329Z,9.25
2022-07-25T06:47:44.245Z,11.77
2022-07-25T06:50:12.627Z,10.10
2022-07-25T06:52:40.391Z,11.20
2022-07-25T06:55:08.540Z,8.88
2022-07-25T06:57:36.077Z,9.32
2022-07-25T07:00:06.610Z,9.07
2022-07-25T07:02:33.758Z,10.35
2022-07-25T07:05:00.918Z,8.50
2022-07-25T07:07:28.053Z,9.00
2022-07-25T07:09:55.186Z,8.90
2022-07-25T07:12:22.543Z,9.48
2022-07-25T07:14:49.779Z,8.88
2022-07-25T07:17:16.932Z,8.43
2022-07-25T07:19:45.813Z,11.20
2022-07-25T07:22:13.509Z,9.48
2022-07-25T07:24:44.078Z,8.88
2022-07-25T07:27:11.622Z,9.38
2022-07-25T07:29:38.937Z,8.50
2022-07-25T07:32:07.014Z,11.32
2022-07-25T07:34:34.482Z,11.23
2022-07-25T07:37:02.574Z,9.40
2022-07-25T07:39:29.870Z,10.00
2022-07-25T07:41:57.029Z,10.73
2022-07-25T07:44:24.144Z,10.40
2022-07-25T07:46:51.375Z,9.48
2022-07-25T07:49:18.594Z,9.40
2022-07-25T07:51:45.831Z,9.68
2022-07-25T07:54:31.811Z,9.38
2022-07-25T07:56:58.978Z,9.20
2022-07-25T07:59:26.111Z,9.95
2022-07-25T08:01:53.365Z,9.05
2022-07-25T08:04:20.532Z,9.38
2022-07-25T08:06:47.642Z,8.68
2022-07-25T08:09:14.792Z,9.15
2022-07-25T08:11:41.921Z,8.95
2022-07-25T08:14:09.376Z,9.55
2022-07-25T08:16:36.892Z,8.98
2022-07-25T08:19:04.066Z,8.77
2022-07-25T08:21:31.315Z,9.35
2022-07-25T08:23:58.463Z,9.35
2022-07-25T08:26:27.824Z,10.27
2022-07-25T08:29:17.079Z,9.27
2022-07-25T08:31:42.359Z,11.55
2022-07-25T08:34:10.027Z,9.05
2022-07-25T08:36:38.208Z,9.57
2022-07-25T08:39:05.572Z,9.45
2022-07-25T08:41:34.296Z,9.25
2022-07-25T08:44:02.362Z,9.57
2022-07-25T08:46:30.230Z,9.88
2022-07-25T08:48:57.877Z,10.40
2022-07-25T08:51:25.119Z,9.05
2022-07-25T08:53:52.674Z,10.07
2022-07-25T08:56:21.325Z,9.40
2022-07-25T08:58:49.575Z,9.75
2022-07-25T09:01:17.130Z,10.63
2022-07-25T09:03:44.799Z,9.68
2022-07-25T09:06:30.163Z,8.68
2022-07-25T09:08:59.685Z,9.35
2022-07-25T09:11:31.183Z,11.20
2022-07-25T09:13:59.338Z,10.48
2022-07-25T09:16:30.597Z,8.90
2022-07-25T09:19:10.828Z,9.55
2022-07-25T09:21:39.784Z,8.35
2022-07-25T09:24:10.908Z,9.63
2022-07-25T09:26:51.544Z,8.85
2022-07-25T09:29:32.415Z,10.27
2022-07-25T09:32:00.484Z,9.73
2022-07-25T09:34:34.857Z,8.93
2022-07-25T09:37:03.222Z,7.47
2022-07-25T09:39:34.425Z,7.90
2022-07-25T09:42:01.714Z,7.32
2022-07-25T09:44:32.189Z,7.93
2022-07-25T09:46:59.357Z,8.35
2022-07-25T09:49:26.876Z,7.88
2022-07-25T09:51:54.061Z,7.65
2022-07-25T09:54:21.454Z,8.15
2022-07-25T09:56:48.619Z,8.07
2022-07-25T09:59:15.790Z,7.03
2022-07-25T10:01:48.582Z,12.13
2022-07-25T10:04:15.826Z,6.70
2022-07-25T10:06:49.754Z,8.00
2022-07-25T10:09:17.466Z,7.38
2022-07-25T10:12:03.819Z,8.18
2022-07-25T10:14:31.155Z,6.40
2022-07-25T10:16:58.409Z,6.72
2022-07-25T10:19:37.766Z,6.70
2022-07-25T10:22:04.948Z,7.53
2022-07-25T10:24:37.443Z,8.32
2022-07-25T10:27:11.928Z,7.57
2022-07-25T10:29:40.733Z,8.50
2022-07-25T10:32:12.925Z,7.97
2022-07-25T10:37:11.567Z,11.38
2022-07-25T10:39:40.286Z,9.82
2022-07-25T10:42:07.843Z,8.05
2022-07-25T10:44:49.104Z,7.90
2022-07-25T10:47:17.929Z,10.10
2022-07-25T10:50:13.873Z,9.40
2022-07-25T10:52:41.060Z,9.25
2022-07-25T10:55:08.418Z,8.98
2022-07-25T10:57:35.772Z,9.27
2022-07-25T11:00:09.474Z,9.43
2022-07-25T11:02:36.710Z,9.15
2022-07-25T11:05:04.826Z,9.73
2022-07-25T11:07:36.232Z,8.73
2022-07-25T11:10:05.314Z,11.45
2022-07-25T11:12:32.603Z,8.27
2022-07-25T11:15:04.368Z,9.00
2022-07-25T11:17:32.236Z,10.13
2022-07-25T11:20:04.034Z,9.65
2022-07-25T11:22:32.039Z,8.10
2022-07-25T11:24:59.770Z,9.35
2022-07-25T11:27:36.060Z,9.75
2022-07-25T11:30:16.621Z,9.85
2022-07-25T11:32:54.264Z,11.48
2022-07-25T11:35:24.422Z,9.80
2022-07-25T11:37:52.234Z,9.07
2022-07-25T11:40:20.949Z,9.18
2022-07-25T11:42:49.336Z,9.57
2022-07-25T11:45:17.347Z,9.73
2022-07-25T11:47:44.689Z,11.07
2022-07-25T11:50:14.783Z,8.98
2022-07-25T11:52:43.244Z,9.30
2022-07-25T11:55:11.793Z,8.60
2022-07-25T11:57:40.340Z,9.05
2022-07-25T12:00:18.488Z,10.27
2022-07-25T12:02:46.275Z,8.98
2022-07-25T12:05:15.264Z,8.68
2022-07-25T12:07:46.896Z,8.68
2022-07-25T12:10:18.114Z,10.00
2022-07-25T12:12:45.197Z,9.03
2022-07-25T12:15:13.945Z,8.57
2022-07-25T12:17:41.455Z,8.93
2022-07-25T12:20:14.083Z,8.82
2022-07-25T12:22:41.351Z,10.82
2022-07-25T12:25:09.226Z,8.95
2022-07-25T12:27:36.373Z,9.40
2022-07-25T12:30:05.767Z,9.93
2022-07-25T12:32:32.931Z,9.10
2022-07-25T12:35:00.216Z,8.73
2022-07-25T12:37:27.871Z,8.82
2022-07-25T12:39:57.022Z,8.52
2022-07-25T12:42:24.391Z,11.05
2022-07-25T12:44:51.680Z,11.48
2022-07-25T12:47:18.891Z,8.30
2022-07-25T12:49:46.046Z,8.23
2022-07-25T12:52:13.251Z,11.68
2022-07-25T12:54:40.634Z,9.05
2022-07-25T12:57:07.870Z,9.88
2022-07-25T12:59:35.007Z,8.57
2022-07-25T13:02:02.218Z,9.75
2022-07-25T13:04:29.629Z,8.13
2022-07-25T13:06:57.101Z,11.05
2022-07-25T13:09:24.792Z,8.55
2022-07-25T13:11:52.021Z,7.88
2022-07-25T13:14:19.291Z,8.10
2022-07-25T13:16:47.123Z,8.52
2022-07-25T13:19:14.743Z,7.70
2022-07-25T13:21:42.716Z,10.43
2022-07-25T13:24:10.515Z,6.93
2022-07-25T13:26:38.557Z,7.03
2022-07-25T13:29:11.534Z,6.40
2022-07-25T13:31:41.196Z,7.25
2022-07-25T13:34:09.005Z,7.70
2022-07-25T13:36:36.876Z,7.10
2022-07-25T13:39:05.214Z,6.30
2022-07-25T13:41:32.655Z,6.75
2022-07-25T13:44:00.343Z,9.27
2022-07-25T13:46:27.495Z,6.20
2022-07-25T13:48:55.730Z,8.65
2022-07-25T13:51:22.977Z,8.38
2022-07-25T13:53:50.099Z,6.75
2022-07-25T13:56:17.676Z,9.27
2022-07-25T13:58:44.846Z,10.27
2022-07-25T14:01:15.403Z,9.57
2022-07-25T14:03:42.721Z,9.13
2022-07-25T14:06:13.653Z,7.63
2022-07-25T14:08:40.810Z,7.47
2022-07-25T14:11:08.522Z,7.32
2022-07-25T14:13:36.477Z,6.50
2022-07-25T14:16:03.835Z,6.57
2022-07-25T14:18:31.988Z,8.70
2022-07-25T14:20:59.903Z,12.57
2022-07-25T14:23:30.051Z,6.47
2022-07-25T14:25:58.497Z,7.38
2022-07-25T14:28:25.775Z,6.57
2022-07-25T14:30:52.968Z,10.18
2022-07-25T14:33:20.142Z,9.43
2022-07-25T14:35:47.336Z,8.50
2022-07-25T14:38:15.232Z,7.95
2022-07-25T14:40:42.715Z,8.10
2022-07-25T14:43:09.890Z,9.05
2022-07-25T14:45:37.181Z,11.35
2022-07-25T14:48:07.425Z,9.02
2022-07-25T14:50:34.615Z,30.42
2022-07-25T14:53:01.730Z,18.95
2022-07-25T14:55:28.890Z,8.60
2022-07-25T14:57:57.820Z,8.40
2022-07-25T15:00:29.477Z,9.85
2022-07-25T15:02:56.874Z,10.55
2022-07-25T15:05:24.023Z,12.90
2022-07-25T15:07:51.246Z,12.00
2022-07-25T15:10:18.569Z,11.80
2022-07-25T15:12:45.711Z,8.32
2022-07-25T15:15:12.863Z,7.13
2022-07-25T15:17:40.765Z,6.97
2022-07-25T15:20:08.335Z,8.10
2022-07-25T15:22:35.851Z,10.50
2022-07-25T15:27:50.173Z,7.30
2022-07-25T15:30:17.332Z,7.53
2022-07-25T15:32:45.740Z,8.95
2022-07-25T15:35:13.241Z,8.48
2022-07-25T15:37:40.617Z,8.50
2022-07-25T15:40:08.429Z,10.13
2022-07-25T15:42:35.716Z,12.80
2022-07-25T15:45:32.046Z,12.35
2022-07-25T15:47:51.488Z,14.30
2022-07-25T15:50:19.214Z,13.38
2022-07-25T15:52:47.698Z,9.05
2022-07-25T15:55:14.842Z,11.55
2022-07-25T15:57:42.018Z,16.35
2022-07-25T16:00:09.601Z,10.52
2022-07-25T16:02:36.853Z,12.43
2022-07-25T16:05:04.753Z,10.95
2022-07-25T16:07:31.903Z,8.75
2022-07-25T16:09:59.445Z,12.13
2022-07-25T16:12:28.703Z,9.10
2022-07-25T16:14:56.119Z,11.18
2022-07-25T16:17:23.760Z,8.88
2022-07-25T16:19:50.919Z,12.75
2022-07-25T16:22:18.187Z,9.82
2022-07-25T16:24:45.308Z,10.73
2022-07-25T16:27:12.496Z,11.00
2022-07-25T16:29:39.941Z,7.95
2022-07-25T16:32:07.744Z,8.43
2022-07-25T16:34:34.946Z,8.88
2022-07-25T16:37:02.847Z,10.10
2022-07-25T16:39:30.495Z,10.10
2022-07-25T16:41:57.931Z,7.85
2022-07-25T16:44:25.219Z,8.63
2022-07-25T16:46:52.417Z,9.48
2022-07-25T16:49:19.866Z,13.40
2022-07-25T16:51:47.476Z,12.70
2022-07-25T16:54:15.113Z,11.35
2022-07-25T16:56:42.276Z,11.57
2022-07-25T16:59:10.110Z,8.75
2022-07-25T17:01:37.623Z,10.07
2022-07-25T17:04:05.017Z,8.57
2022-07-25T17:06:32.188Z,11.40
2022-07-25T17:08:59.383Z,7.95
2022-07-25T17:11:27.387Z,8.98
2022-07-25T17:13:54.724Z,9.25
2022-07-25T17:16:21.969Z,8.15
2022-07-25T17:18:49.417Z,10.10
2022-07-25T17:21:18.275Z,7.68
2022-07-25T17:23:47.044Z,10.30
2022-07-25T17:26:14.274Z,8.43
2022-07-25T17:28:41.424Z,8.02
2022-07-25T17:31:08.711Z,7.95
2022-07-25T17:33:35.918Z,11.25
2022-07-25T17:36:03.132Z,11.48
2022-07-25T17:38:34.820Z,8.00
2022-07-25T17:41:02.304Z,6.60
2022-07-25T17:43:29.594Z,6.35
2022-07-25T17:45:57.966Z,8.23
2022-07-25T17:48:25.124Z,5.97
2022-07-25T17:50:52.498Z,8.93
2022-07-25T17:53:19.795Z,6.50
2022-07-25T17:55:47.471Z,8.40
2022-07-25T17:58:14.791Z,9.15
2022-07-25T18:00:41.954Z,9.52
2022-07-25T18:03:09.290Z,11.50
2022-07-25T18:05:36.456Z,9.90
2022-07-25T18:08:03.698Z,6.78
2022-07-25T18:10:31.275Z,7.15
2022-07-25T18:13:00.797Z,10.93
2022-07-25T18:15:28.168Z,12.35
2022-07-25T18:17:55.486Z,9.50
2022-07-25T18:20:22.776Z,9.48
2022-07-25T18:22:49.929Z,8.70
2022-07-25T18:25:17.222Z,12.60
2022-07-25T18:27:45.048Z,8.23
2022-07-25T18:30:12.495Z,11.45
2022-07-25T18:32:39.755Z,7.43
2022-07-25T18:35:07.970Z,7.72
2022-07-25T18:37:35.366Z,8.27
2022-07-25T18:40:02.742Z,7.10
2022-07-25T18:42:30.322Z,6.93
2022-07-25T18:44:57.602Z,7.13
2022-07-25T18:47:25.951Z,8.25
2022-07-25T18:49:54.493Z,9.65
2022-07-25T18:52:22.048Z,8.18
2022-07-25T18:54:49.470Z,9.88
2022-07-25T18:57:16.654Z,7.65
2022-07-25T18:59:43.907Z,6.38
2022-07-25T19:02:11.078Z,8.68
2022-07-25T19:04:38.330Z,11.43
2022-07-25T19:07:05.552Z,8.63
2022-07-25T19:09:32.742Z,7.35
2022-07-25T19:12:01.154Z,10.50
2022-07-25T19:14:30.423Z,7.93
2022-07-25T19:16:58.739Z,10.73
2022-07-25T19:19:26.886Z,11.18
2022-07-25T19:21:54.337Z,8.35
2022-07-25T19:24:21.702Z,11.38
2022-07-25T19:26:49.802Z,10.02
2022-07-25T19:29:17.982Z,11.88
2022-07-25T19:31:45.213Z,10.20
2022-07-25T19:34:12.387Z,8.82
2022-07-25T19:36:39.671Z,9.30
2022-07-25T19:39:06.834Z,7.28
2022-07-25T19:41:34.126Z,8.55
2022-07-25T19:44:01.297Z,10.32
2022-07-25T19:46:33.508Z,9.20
2022-07-25T19:49:06.947Z,7.05
2022-07-25T19:51:34.209Z,8.32
2022-07-25T19:54:05.157Z,7.85
2022-07-25T19:56:34.210Z,5.45
2022-07-25T19:59:02.173Z,7.72
2022-07-25T20:01:29.961Z,8.13
2022-07-25T20:03:57.532Z,6.57
2022-07-25T20:06:24.805Z,9.95
2022-07-25T20:08:52.320Z,10.63
2022-07-25T20:11:19.582Z,12.10
2022-07-25T20:13:46.750Z,6.40
2022-07-25T20:16:13.907Z,11.80
2022-07-25T20:18:41.087Z,9.10
2022-07-25T20:21:08.418Z,4.85
2022-07-25T20:23:35.589Z,7.22
2022-07-25T20:26:02.902Z,5.90
2022-07-25T20:28:30.118Z,6.38
2022-07-25T20:30:57.781Z,8.32
2022-07-25T20:33:27.119Z,10.38
2022-07-25T20:35:57.793Z,7.60
2022-07-25T20:38:28.174Z,6.40
2022-07-25T20:40:55.645Z,4.00
2022-07-25T20:43:22.895Z,6.20
2022-07-25T20:45:50.165Z,8.38
2022-07-25T20:48:17.477Z,5.18
2022-07-25T20:50:44.998Z,5.38
2022-07-25T20:53:12.347Z,4.85
2022-07-25T20:55:39.610Z,4.55
2022-07-25T20:58:06.748Z,4.78
2022-07-25T21:00:33.939Z,5.97
2022-07-25T21:03:01.611Z,9.68
2022-07-25T21:05:29.363Z,8.38
2022-07-25T21:07:56.534Z,4.38
2022-07-25T21:10:24.358Z,5.70
2022-07-25T21:12:51.580Z,10.35
2022-07-25T21:15:18.786Z,6.75
2022-07-25T21:17:45.972Z,6.60
2022-07-25T21:20:13.804Z,6.57
2022-07-25T21:22:41.508Z,6.47
2022-07-25T21:25:08.870Z,6.47
2022-07-25T21:27:36.288Z,3.25
2022-07-25T21:30:04.824Z,6.90
2022-07-25T21:32:32.023Z,5.18
2022-07-25T21:34:59.543Z,4.40
2022-07-25T21:37:26.789Z,5.05
2022-07-25T21:39:54.190Z,5.40
2022-07-25T21:42:21.385Z,5.78
2022-07-25T21:44:48.849Z,6.50
2022-07-25T21:47:15.989Z,7.15
2022-07-25T21:50:01.760Z,5.45
2022-07-25T21:52:34.755Z,8.75
2022-07-25T21:55:02.668Z,11.50
2022-07-25T21:57:29.840Z,6.07
2022-07-25T21:59:56.970Z,4.82
2022-07-25T22:02:24.226Z,5.65
2022-07-25T22:04:51.480Z,6.75
2022-07-25T22:07:18.726Z,5.15
2022-07-25T22:09:45.850Z,5.47
2022-07-25T22:12:13.124Z,4.07
2022-07-25T22:14:40.376Z,6.22
2022-07-25T22:17:07.561Z,6.00
2022-07-25T22:19:34.712Z,5.90
2022-07-25T22:22:01.909Z,7.47
2022-07-25T22:24:29.014Z,5.13
2022-07-25T22:26:56.182Z,8.73
2022-07-25T22:29:23.357Z,4.88
2022-07-25T22:31:50.747Z,3.95
2022-07-25T22:34:18.081Z,6.72
2022-07-25T22:36:45.303Z,4.07
2022-07-25T22:39:12.776Z,4.60
2022-07-25T22:41:40.045Z,3.30
2022-07-25T22:44:07.235Z,6.15
2022-07-25T22:46:34.641Z,4.57
2022-07-25T22:49:02.142Z,6.95
2022-07-25T22:51:29.752Z,4.65
2022-07-25T22:53:57.699Z,6.55
2022-07-25T22:56:25.007Z,4.55
2022-07-25T22:58:52.451Z,7.13
2022-07-25T23:01:20.297Z,3.22
2022-07-25T23:03:49.824Z,7.80
2022-07-25T23:06:17.954Z,8.32
2022-07-25T23:08:45.129Z,7.15
2022-07-25T23:11:12.392Z,3.10
2022-07-25T23:13:39.570Z,3.70
2022-07-25T23:16:10.403Z,2.83
2022-07-25T23:18:37.943Z,4.78
2022-07-25T23:21:05.118Z,3.47
2022-07-25T23:23:32.421Z,3.65
2022-07-25T23:25:59.633Z,6.07
2022-07-25T23:28:26.823Z,4.78
2022-07-25T23:30:53.933Z,4.85
2022-07-25T23:33:25.175Z,10.60
2022-07-25T23:35:52.984Z,6.00
2022-07-25T23:38:20.161Z,6.30
2022-07-25T23:40:47.373Z,6.35
2022-07-25T23:43:19.442Z,8.10
2022-07-25T23:46:01.618Z,5.38
2022-07-25T23:48:29.315Z,3.85
2022-07-25T23:50:56.800Z,4.00
2022-07-25T23:53:24.084Z,5.40
2022-07-25T23:55:51.258Z,7.70
2022-07-25T23:58:18.488Z,3.80
